Time;durP1;ratioP1;P1;durP2;ratioP2;P2;SDS_P1;SDS_P2;PMS_P1;PMS_P2;Temp;Humidity;BMP_temperature;BMP_pressure;BME280_temperature;BME280_humidity;BME280_pressure;Samples;Min_cycle;Max_cycle;Signal;HPM_P1;HPM_P2
2021/01/26 00:00:54;;;;;;;23.45;14.05;;;;;;;;;;4993641;28;20061;-82
2021/01/26 00:03:21;;;;;;;25.42;15.43;;;;;;;;;;5015795;28;20046;-82
2021/01/26 00:05:47;;;;;;;27.08;16.00;;;;;;;;;;4983946;28;20050;-82
2021/01/26 00:08:14;;;;;;;25.23;16.92;;;;;;;;;;4983098;28;20045;-82
2021/01/26 00:10:41;;;;;;;23.63;15.35;;;;;;;;;;4999391;28;20050;-82
2021/01/26 00:13:08;;;;;;;29.42;16.45;;;;;;;;;;4999349;28;20062;-82
2021/01/26 00:15:35;;;;;;;27.05;15.20;;;;;;;;;;4982309;28;20050;-82
2021/01/26 00:18:02;;;;;;;23.00;14.55;;;;;;;;;;4998837;28;20049;-82
2021/01/26 00:20:28;;;;;;;25.55;14.88;;;;;;;;;;4982463;28;20054;-82
2021/01/26 00:22:56;;;;;;;23.92;14.35;;;;;;;;;;4998770;28;20061;-81
2021/01/26 00:25:25;;;;;;;22.83;14.13;;;;;;;;;;4981918;28;20046;-82
2021/01/26 00:27:52;;;;;;;22.42;13.35;;;;;;;;;;4997377;28;20057;-82
2021/01/26 00:30:24;;;;;;;18.27;12.38;;;;;;;;;;4994627;28;20054;-82
2021/01/26 00:32:50;;;;;;;21.95;14.43;;;;;;;;;;4979493;28;20065;-82
2021/01/26 00:35:20;;;;;;;20.40;12.80;;;;;;;;;;4978917;28;20053;-83
2021/01/26 00:37:46;;;;;;;19.92;13.32;;;;;;;;;;4979178;28;20395;-83
2021/01/26 00:40:13;;;;;;;22.70;12.15;;;;;;;;;;4979110;28;20057;-83
2021/01/26 00:42:39;;;;;;;21.15;13.50;;;;;;;;;;4979077;28;20073;-82
2021/01/26 00:45:08;;;;;;;19.38;11.55;;;;;;;;;;4962877;28;20051;-83
2021/01/26 00:47:35;;;;;;;20.90;13.50;;;;;;;;;;4963000;28;20053;-83
2021/01/26 00:50:06;;;;;;;19.08;12.00;;;;;;;;;;4965662;28;20073;-83
2021/01/26 00:52:32;;;;;;;22.02;13.48;;;;;;;;;;4982396;28;20502;-83
2021/01/26 00:54:58;;;;;;;19.15;12.25;;;;;;;;;;4981852;28;20422;-82
2021/01/26 00:57:25;;;;;;;19.73;11.70;;;;;;;;;;4997457;28;20054;-81
2021/01/26 00:59:51;;;;;;;19.35;11.88;;;;;;;;;;4981798;28;20426;-82
2021/01/26 01:02:17;;;;;;;16.67;11.32;;;;;;;;;;4981916;28;20058;-82
2021/01/26 01:04:44;;;;;;;17.88;11.60;;;;;;;;;;4978317;28;20056;-82
2021/01/26 01:07:11;;;;;;;14.82;10.32;;;;;;;;;;4962197;28;20053;-81
2021/01/26 01:09:37;;;;;;;16.77;10.38;;;;;;;;;;4962675;28;20257;-81
2021/01/26 01:12:04;;;;;;;18.58;11.55;;;;;;;;;;4963139;28;20054;-82
2021/01/26 01:14:30;;;;;;;19.38;12.30;;;;;;;;;;4962426;28;20054;-81
2021/01/26 01:16:56;;;;;;;17.17;11.52;;;;;;;;;;4978622;28;20050;-81
2021/01/26 01:19:23;;;;;;;17.15;11.52;;;;;;;;;;4977585;28;20046;-81
2021/01/26 01:21:49;;;;;;;17.08;11.93;;;;;;;;;;4963153;28;20400;-81
2021/01/26 01:24:16;;;;;;;15.85;11.02;;;;;;;;;;4962981;28;20081;-81
2021/01/26 01:26:42;;;;;;;15.32;10.07;;;;;;;;;;4962248;28;20110;-83
2021/01/26 01:29:13;;;;;;;18.83;10.48;;;;;;;;;;4960370;28;20054;-82
2021/01/26 01:31:39;;;;;;;16.08;10.00;;;;;;;;;;4980663;28;20048;-83
2021/01/26 01:34:06;;;;;;;14.63;10.02;;;;;;;;;;4981263;28;20061;-83
2021/01/26 01:36:34;;;;;;;15.70;10.20;;;;;;;;;;4977417;28;20524;-84
2021/01/26 01:39:00;;;;;;;14.30;9.02;;;;;;;;;;4978709;28;20052;-83
2021/01/26 01:41:31;;;;;;;12.40;9.05;;;;;;;;;;4984206;28;20048;-84
2021/01/26 01:43:57;;;;;;;11.48;7.88;;;;;;;;;;4985345;28;20069;-84
2021/01/26 01:46:23;;;;;;;11.85;8.02;;;;;;;;;;4985624;28;20053;-85
2021/01/26 01:48:51;;;;;;;10.45;7.97;;;;;;;;;;4986097;28;20140;-84
2021/01/26 01:51:20;;;;;;;11.90;7.93;;;;;;;;;;4985626;28;20050;-85
2021/01/26 01:53:58;;;;;;;9.82;7.15;;;;;;;;;;4985482;28;20056;-84
2021/01/26 01:56:31;;;;;;;9.85;6.28;;;;;;;;;;4986016;28;20054;-85
2021/01/26 01:59:07;;;;;;;9.70;6.32;;;;;;;;;;5017802;28;20053;-85
2021/01/26 02:01:33;;;;;;;9.10;5.22;;;;;;;;;;4985871;28;20050;-85
2021/01/26 02:04:07;;;;;;;9.80;6.18;;;;;;;;;;4985831;28;20077;-85
2021/01/26 02:06:34;;;;;;;8.23;5.93;;;;;;;;;;4983320;28;20050;-84
2021/01/26 02:09:16;;;;;;;10.30;6.20;;;;;;;;;;4980950;28;20050;-84
2021/01/26 02:11:45;;;;;;;10.27;6.93;;;;;;;;;;4997122;28;20447;-84
2021/01/26 02:14:11;;;;;;;11.68;6.82;;;;;;;;;;4965084;28;20047;-83
2021/01/26 02:17:03;;;;;;;10.82;6.57;;;;;;;;;;4964903;28;20073;-83
2021/01/26 02:19:48;;;;;;;9.90;6.10;;;;;;;;;;4994140;28;20054;-83
2021/01/26 02:22:14;;;;;;;10.48;6.95;;;;;;;;;;4996867;28;20054;-83
2021/01/26 02:25:12;;;;;;;11.13;6.63;;;;;;;;;;4999027;28;20053;-84
2021/01/26 02:28:00;;;;;;;12.15;7.35;;;;;;;;;;5016311;28;20054;-84
2021/01/26 02:30:50;;;;;;;10.60;6.85;;;;;;;;;;5016588;28;20046;-84
2021/01/26 02:33:44;;;;;;;18.48;7.95;;;;;;;;;;4995800;28;20424;-84
2021/01/26 02:36:33;;;;;;;13.05;7.38;;;;;;;;;;5013772;28;20050;-84
2021/01/26 02:39:41;;;;;;;9.68;6.82;;;;;;;;;;5004204;28;20145;-84
2021/01/26 02:42:26;;;;;;;12.75;6.45;;;;;;;;;;5016465;28;20049;-84
2021/01/26 02:45:08;;;;;;;16.48;9.27;;;;;;;;;;5018927;28;20056;-83
2021/01/26 02:47:38;;;;;;;11.00;7.10;;;;;;;;;;5002654;28;20054;-84
2021/01/26 02:50:10;;;;;;;10.50;6.88;;;;;;;;;;5017755;28;20046;-83
2021/01/26 02:52:58;;;;;;;12.32;6.78;;;;;;;;;;4997312;28;20057;-84
2021/01/26 02:55:32;;;;;;;13.23;7.38;;;;;;;;;;4996323;28;20501;-83
2021/01/26 02:58:04;;;;;;;13.40;7.90;;;;;;;;;;5030498;22;20054;-72
2021/01/26 03:00:31;;;;;;;13.37;7.67;;;;;;;;;;4993882;28;20086;-71
2021/01/26 03:03:05;;;;;;;10.50;7.45;;;;;;;;;;4976631;28;20054;-71
2021/01/26 03:05:42;;;;;;;13.25;7.30;;;;;;;;;;4992065;28;20409;-72
2021/01/26 03:08:17;;;;;;;10.70;6.63;;;;;;;;;;4992425;28;20058;-72
2021/01/26 03:10:49;;;;;;;12.60;7.25;;;;;;;;;;4960296;28;20094;-72
2021/01/26 03:13:15;;;;;;;10.20;6.65;;;;;;;;;;4973072;28;20493;-71
2021/01/26 03:15:53;;;;;;;9.65;6.57;;;;;;;;;;4956500;28;20493;-72
2021/01/26 03:18:21;;;;;;;11.40;7.20;;;;;;;;;;4970647;28;20058;-72
2021/01/26 03:20:51;;;;;;;12.05;6.57;;;;;;;;;;4960489;28;20054;-72
2021/01/26 03:23:21;;;;;;;11.35;6.50;;;;;;;;;;4974779;28;20465;-72
2021/01/26 03:25:49;;;;;;;11.48;7.65;;;;;;;;;;4956427;28;20046;-72
2021/01/26 03:28:16;;;;;;;11.90;6.85;;;;;;;;;;4957003;28;20070;-72
2021/01/26 03:30:43;;;;;;;13.07;6.55;;;;;;;;;;4972834;28;20058;-72
2021/01/26 03:33:31;;;;;;;13.63;7.93;;;;;;;;;;4967885;28;20054;-72
2021/01/26 03:35:58;;;;;;;9.90;6.32;;;;;;;;;;4991756;28;20078;-72
2021/01/26 03:38:29;;;;;;;12.68;6.63;;;;;;;;;;4993239;28;20109;-72
2021/01/26 03:40:56;;;;;;;12.20;7.15;;;;;;;;;;4993459;28;20502;-72
2021/01/26 03:43:23;;;;;;;10.65;6.38;;;;;;;;;;4976069;28;20142;-72
2021/01/26 03:46:19;;;;;;;12.13;7.22;;;;;;;;;;4972121;28;20051;-72
2021/01/26 03:49:13;;;;;;;13.85;7.38;;;;;;;;;;4965368;28;20105;-72
2021/01/26 03:51:55;;;;;;;13.75;8.30;;;;;;;;;;4972617;28;20425;-72
2021/01/26 03:54:35;;;;;;;11.85;7.18;;;;;;;;;;4973776;28;20558;-72
2021/01/26 03:57:31;;;;;;;11.32;6.18;;;;;;;;;;4983282;28;20050;-72
2021/01/26 04:00:11;;;;;;;12.57;6.80;;;;;;;;;;4991518;28;20567;-72
2021/01/26 04:03:15;;;;;;;11.73;6.38;;;;;;;;;;4992730;28;20053;-72
2021/01/26 04:05:47;;;;;;;13.23;7.53;;;;;;;;;;4990854;28;20057;-72
2021/01/26 04:08:18;;;;;;;15.05;7.35;;;;;;;;;;4991563;28;20054;-72
2021/01/26 04:11:17;;;;;;;11.55;6.18;;;;;;;;;;4991474;28;20057;-72
2021/01/26 04:14:25;;;;;;;13.60;6.93;;;;;;;;;;4990975;28;20658;-72
2021/01/26 04:16:58;;;;;;;10.98;6.10;;;;;;;;;;4981597;28;20046;-72
2021/01/26 04:19:26;;;;;;;12.15;6.63;;;;;;;;;;4976098;28;20050;-72
2021/01/26 04:21:52;;;;;;;11.57;6.63;;;;;;;;;;4975806;28;20112;-72
2021/01/26 04:24:19;;;;;;;9.90;6.07;;;;;;;;;;4992182;28;20054;-72
2021/01/26 04:26:46;;;;;;;10.75;6.03;;;;;;;;;;4991693;28;20552;-72
2021/01/26 04:29:12;;;;;;;10.07;6.60;;;;;;;;;;4979197;28;20536;-72
2021/01/26 04:31:39;;;;;;;13.95;6.82;;;;;;;;;;4973010;28;20059;-72
2021/01/26 04:34:05;;;;;;;10.48;6.47;;;;;;;;;;4971801;28;20055;-72
2021/01/26 04:36:32;;;;;;;13.75;6.50;;;;;;;;;;4972184;28;20074;-72
2021/01/26 04:38:59;;;;;;;10.18;5.82;;;;;;;;;;4985619;28;20077;-72
2021/01/26 04:41:46;;;;;;;9.27;5.95;;;;;;;;;;4991995;28;20054;-72
2021/01/26 04:44:48;;;;;;;9.57;6.35;;;;;;;;;;4991218;28;20050;-72
2021/01/26 04:47:25;;;;;;;10.43;5.40;;;;;;;;;;4990288;28;20510;-72
2021/01/26 04:50:13;;;;;;;9.65;6.47;;;;;;;;;;4991324;28;20046;-72
2021/01/26 04:52:58;;;;;;;10.23;6.15;;;;;;;;;;4991043;28;20069;-72
2021/01/26 04:55:53;;;;;;;9.23;5.80;;;;;;;;;;4986766;28;20138;-72
2021/01/26 04:58:54;;;;;;;10.73;6.75;;;;;;;;;;4972566;28;20047;-72
2021/01/26 05:01:26;;;;;;;9.13;4.88;;;;;;;;;;4976950;28;20563;-72
2021/01/26 05:04:13;;;;;;;8.77;4.63;;;;;;;;;;4992418;28;20120;-72
2021/01/26 05:06:50;;;;;;;8.80;5.00;;;;;;;;;;4974224;28;20051;-72
2021/01/26 05:09:27;;;;;;;6.18;4.32;;;;;;;;;;4991303;28;20050;-72
2021/01/26 05:11:53;;;;;;;8.32;4.32;;;;;;;;;;4990304;28;20074;-72
2021/01/26 05:14:22;;;;;;;5.95;3.70;;;;;;;;;;4974968;28;20516;-72
2021/01/26 05:16:53;;;;;;;5.97;3.75;;;;;;;;;;4993858;28;20050;-72
2021/01/26 05:19:44;;;;;;;7.53;3.97;;;;;;;;;;4994869;28;20137;-72
2021/01/26 05:22:55;;;;;;;7.85;3.47;;;;;;;;;;4994757;28;20078;-72
2021/01/26 05:25:23;;;;;;;7.03;4.30;;;;;;;;;;4994000;28;20521;-72
2021/01/26 05:27:49;;;;;;;7.32;3.80;;;;;;;;;;4994651;28;20050;-72
2021/01/26 05:30:28;;;;;;;6.60;3.58;;;;;;;;;;4994621;28;20465;-72
2021/01/26 05:32:54;;;;;;;8.32;4.25;;;;;;;;;;4979706;28;20054;-72
2021/01/26 05:35:20;;;;;;;7.38;3.92;;;;;;;;;;4993855;28;20480;-72
2021/01/26 05:37:51;;;;;;;7.82;3.55;;;;;;;;;;4960766;28;20517;-72
2021/01/26 05:40:20;;;;;;;7.18;4.55;;;;;;;;;;4943360;28;20093;-72
2021/01/26 05:42:57;;;;;;;7.13;3.78;;;;;;;;;;4974915;28;20109;-73
2021/01/26 05:45:26;;;;;;;5.63;3.88;;;;;;;;;;4974148;28;20086;-72
2021/01/26 05:48:07;;;;;;;8.27;4.05;;;;;;;;;;4975048;28;20050;-72
2021/01/26 05:50:35;;;;;;;6.38;3.95;;;;;;;;;;4974720;28;20054;-72
2021/01/26 05:53:09;;;;;;;7.45;3.90;;;;;;;;;;4971903;28;20081;-73
2021/01/26 05:55:35;;;;;;;7.43;4.18;;;;;;;;;;4960426;28;20046;-72
2021/01/26 05:58:09;;;;;;;7.93;4.30;;;;;;;;;;4975309;28;20485;-72
2021/01/26 06:00:36;;;;;;;7.15;3.85;;;;;;;;;;4992286;28;20046;-72
2021/01/26 06:03:05;;;;;;;6.75;3.35;;;;;;;;;;4993218;28;20054;-72
2021/01/26 06:05:31;;;;;;;9.35;3.67;;;;;;;;;;4992941;28;20084;-71
2021/01/26 06:08:06;;;;;;;7.05;4.50;;;;;;;;;;4992009;28;20100;-71
2021/01/26 06:10:33;;;;;;;8.02;3.42;;;;;;;;;;4956170;28;21834;-71
2021/01/26 06:13:01;;;;;;;6.47;3.35;;;;;;;;;;4975499;28;20047;-72
2021/01/26 06:15:31;;;;;;;6.65;3.58;;;;;;;;;;4975562;28;20050;-72
2021/01/26 06:18:09;;;;;;;5.65;2.80;;;;;;;;;;4993174;28;20053;-71
2021/01/26 06:20:38;;;;;;;7.68;2.92;;;;;;;;;;4990390;28;20057;-72
2021/01/26 06:23:20;;;;;;;4.50;2.60;;;;;;;;;;4990138;28;20061;-72
2021/01/26 06:25:51;;;;;;;6.25;2.65;;;;;;;;;;4992066;28;20050;-71
2021/01/26 06:28:27;;;;;;;6.18;3.03;;;;;;;;;;4992077;28;20129;-71
2021/01/26 06:31:08;;;;;;;7.22;2.90;;;;;;;;;;4992405;28;20421;-72
2021/01/26 06:33:54;;;;;;;5.57;2.80;;;;;;;;;;4992061;28;20050;-71
2021/01/26 06:36:42;;;;;;;6.53;3.30;;;;;;;;;;4993431;28;20158;-71
2021/01/26 06:39:37;;;;;;;6.40;2.83;;;;;;;;;;4994582;28;20062;-72
2021/01/26 06:42:06;;;;;;;4.78;3.15;;;;;;;;;;4993552;28;20517;-72
2021/01/26 06:44:42;;;;;;;9.48;3.58;;;;;;;;;;4992774;28;20505;-72
2021/01/26 06:47:22;;;;;;;6.78;2.97;;;;;;;;;;4992477;28;20047;-70
2021/01/26 06:50:05;;;;;;;8.95;3.30;;;;;;;;;;4981918;28;20137;-73
2021/01/26 06:52:48;;;;;;;6.00;2.40;;;;;;;;;;4990911;28;20053;-70
2021/01/26 06:55:52;;;;;;;6.75;2.53;;;;;;;;;;4991889;28;20046;-70
2021/01/26 06:58:38;;;;;;;6.00;2.65;;;;;;;;;;4991469;28;20062;-70
2021/01/26 07:01:23;;;;;;;9.68;3.10;;;;;;;;;;4993029;28;20074;-70
2021/01/26 07:03:58;;;;;;;6.68;3.05;;;;;;;;;;4992140;28;20078;-70
2021/01/26 07:06:30;;;;;;;6.78;2.80;;;;;;;;;;4988847;28;20132;-71
2021/01/26 07:09:12;;;;;;;3.35;1.75;;;;;;;;;;4989878;28;20061;-71
2021/01/26 07:12:00;;;;;;;5.30;2.05;;;;;;;;;;4974897;28;20057;-70
2021/01/26 07:14:35;;;;;;;2.92;2.22;;;;;;;;;;4989971;28;20078;-71
2021/01/26 07:17:05;;;;;;;2.75;1.70;;;;;;;;;;4973167;28;20074;-71
2021/01/26 07:19:44;;;;;;;4.78;1.85;;;;;;;;;;4967231;28;20042;-71
2021/01/26 07:22:35;;;;;;;5.80;2.05;;;;;;;;;;4986183;28;20405;-71
2021/01/26 07:25:18;;;;;;;9.43;2.20;;;;;;;;;;4954831;28;20090;-71
2021/01/26 07:27:54;;;;;;;8.68;2.10;;;;;;;;;;4968919;28;20506;-71
2021/01/26 07:30:27;;;;;;;7.38;4.15;;;;;;;;;;4970762;28;20540;-71
2021/01/26 07:33:14;;;;;;;5.65;2.58;;;;;;;;;;4965500;28;20082;-70
2021/01/26 07:35:47;;;;;;;3.78;2.42;;;;;;;;;;4970613;28;20059;-71
2021/01/26 07:38:19;;;;;;;7.50;2.90;;;;;;;;;;4955144;28;20055;-70
2021/01/26 07:40:51;;;;;;;5.18;2.28;;;;;;;;;;4972318;28;20473;-71
2021/01/26 07:43:30;;;;;;;6.27;2.30;;;;;;;;;;4955381;28;20074;-72
2021/01/26 07:46:02;;;;;;;10.50;4.53;;;;;;;;;;4987818;28;20050;-71
2021/01/26 07:48:52;;;;;;;3.30;2.30;;;;;;;;;;4971693;28;20105;-71
2021/01/26 07:51:20;;;;;;;4.15;2.10;;;;;;;;;;4985098;28;20108;-71
2021/01/26 07:54:07;;;;;;;5.70;2.88;;;;;;;;;;4986925;28;20050;-71
2021/01/26 07:56:37;;;;;;;4.88;2.20;;;;;;;;;;4972264;28;20129;-71
2021/01/26 07:59:06;;;;;;;3.95;2.35;;;;;;;;;;4989975;28;20133;-71
2021/01/26 08:01:38;;;;;;;4.53;2.28;;;;;;;;;;4986174;28;20046;-71
2021/01/26 08:04:04;;;;;;;5.13;2.60;;;;;;;;;;4978740;28;20085;-71
2021/01/26 08:06:37;;;;;;;6.90;2.88;;;;;;;;;;4970981;28;20050;-71
2021/01/26 08:09:03;;;;;;;8.30;2.80;;;;;;;;;;4989246;28;20081;-71
2021/01/26 08:11:30;;;;;;;5.53;2.55;;;;;;;;;;4961971;28;20494;-72
2021/01/26 08:14:00;;;;;;;8.00;3.45;;;;;;;;;;4977446;28;20465;-71
2021/01/26 08:16:33;;;;;;;7.57;2.92;;;;;;;;;;4988344;28;20050;-71
2021/01/26 08:19:00;;;;;;;;;;;;;;;;;;4965848;28;20685;-73
2021/01/26 08:21:32;;;;;;;6.40;3.42;;;;;;;;;;4986014;28;20031;-75
2021/01/26 08:24:13;;;;;;;5.80;3.38;;;;;;;;;;4968858;28;20089;-75
2021/01/26 08:26:40;;;;;;;7.25;3.70;;;;;;;;;;4987945;28;20461;-72
2021/01/26 08:29:07;;;;;;;6.60;4.30;;;;;;;;;;4980115;28;20055;-75
2021/01/26 08:31:34;;;;;;;6.88;3.42;;;;;;;;;;4972290;28;20054;-75
2021/01/26 08:34:19;;;;;;;9.43;3.60;;;;;;;;;;4990441;28;20056;-74
2021/01/26 08:36:46;;;;;;;7.60;3.60;;;;;;;;;;4986548;28;20101;-73
2021/01/26 08:39:15;;;;;;;9.73;2.97;;;;;;;;;;4980947;28;20524;-74
2021/01/26 08:41:50;;;;;;;6.35;3.75;;;;;;;;;;4989690;28;20097;-74
2021/01/26 08:44:20;;;;;;;5.63;3.10;;;;;;;;;;4970249;28;20062;-74
2021/01/26 08:46:54;;;;;;;9.45;3.50;;;;;;;;;;4988968;28;20049;-74
2021/01/26 08:49:31;;;;;;;7.75;3.25;;;;;;;;;;4978837;28;20557;-76
2021/01/26 08:52:21;;;;;;;7.55;3.42;;;;;;;;;;4989620;28;20508;-75
2021/01/26 08:54:50;;;;;;;8.02;3.15;;;;;;;;;;4982306;28;20421;-73
2021/01/26 08:57:29;;;;;;;5.50;3.28;;;;;;;;;;4989853;28;20141;-74
2021/01/26 09:00:26;;;;;;;7.00;3.30;;;;;;;;;;4987658;28;20072;-75
2021/01/26 09:02:53;;;;;;;6.10;3.40;;;;;;;;;;4985068;28;20050;-74
2021/01/26 09:05:42;;;;;;;5.10;3.28;;;;;;;;;;4972740;28;20485;-74
2021/01/26 09:08:09;;;;;;;4.07;2.88;;;;;;;;;;4989540;28;20057;-74
2021/01/26 09:10:54;;;;;;;9.93;3.67;;;;;;;;;;4990198;28;20057;-73
2021/01/26 09:13:27;;;;;;;7.72;3.85;;;;;;;;;;4982758;28;20133;-75
2021/01/26 09:15:56;;;;;;;7.20;4.03;;;;;;;;;;4972682;28;20057;-73
2021/01/26 09:18:25;;;;;;;7.07;3.65;;;;;;;;;;4972517;28;20066;-73
2021/01/26 09:21:00;;;;;;;5.28;3.08;;;;;;;;;;4988770;28;20484;-72
2021/01/26 09:23:29;;;;;;;6.07;3.50;;;;;;;;;;4973181;28;20050;-72
2021/01/26 09:25:55;;;;;;;4.55;2.65;;;;;;;;;;4972275;28;20142;-75
2021/01/26 09:28:22;;;;;;;3.65;2.72;;;;;;;;;;4986793;28;20050;-73
2021/01/26 09:31:01;;;;;;;4.60;2.55;;;;;;;;;;4975160;28;20047;-72
2021/01/26 09:33:29;;;;;;;4.47;2.10;;;;;;;;;;4963683;28;20053;-74
2021/01/26 09:36:02;;;;;;;5.00;2.92;;;;;;;;;;4989346;28;20523;-73
2021/01/26 09:39:02;;;;;;;8.13;2.50;;;;;;;;;;4989374;28;20117;-75
2021/01/26 09:41:31;;;;;;;3.38;2.00;;;;;;;;;;4986091;28;20062;-73
2021/01/26 09:44:08;;;;;;;2.85;1.85;;;;;;;;;;4988886;28;20054;-78
2021/01/26 09:46:49;;;;;;;3.53;2.13;;;;;;;;;;4978062;28;20046;-72
2021/01/26 09:49:23;;;;;;;5.43;1.95;;;;;;;;;;4988380;28;20054;-75
2021/01/26 09:51:53;;;;;;;5.25;2.40;;;;;;;;;;4971785;28;20109;-76
2021/01/26 09:54:31;;;;;;;4.32;2.00;;;;;;;;;;4987668;28;20061;-73
2021/01/26 09:56:58;;;;;;;4.40;2.03;;;;;;;;;;4971534;28;20370;-74
2021/01/26 09:59:25;;;;;;;4.28;1.90;;;;;;;;;;4963627;28;20046;-72
2021/01/26 10:01:52;;;;;;;4.78;2.67;;;;;;;;;;4973103;28;20109;-71
2021/01/26 10:04:20;;;;;;;8.88;1.98;;;;;;;;;;4977124;28;20078;-74
2021/01/26 10:06:48;;;;;;;4.60;1.90;;;;;;;;;;4973998;28;20054;-72
2021/01/26 10:09:33;;;;;;;4.00;2.00;;;;;;;;;;4992131;28;20140;-72
2021/01/26 10:12:40;;;;;;;3.38;1.75;;;;;;;;;;5000357;28;20054;-72
2021/01/26 10:15:12;;;;;;;3.97;2.28;;;;;;;;;;4992573;28;20050;-72
2021/01/26 10:17:58;;;;;;;6.90;2.47;;;;;;;;;;4993679;28;20050;-73
2021/01/26 10:20:32;;;;;;;12.57;2.55;;;;;;;;;;4988706;28;20054;-72
2021/01/26 10:23:10;;;;;;;3.17;1.75;;;;;;;;;;4973604;28;20106;-72
2021/01/26 10:25:37;;;;;;;7.78;2.25;;;;;;;;;;4967068;28;20047;-71
2021/01/26 10:28:09;;;;;;;4.30;2.03;;;;;;;;;;4974686;28;20051;-72
2021/01/26 10:30:42;;;;;;;5.05;2.25;;;;;;;;;;4992878;28;20571;-72
2021/01/26 10:33:09;;;;;;;4.68;1.75;;;;;;;;;;4992598;28;20050;-72
2021/01/26 10:35:37;;;;;;;3.80;1.63;;;;;;;;;;4991887;28;20061;-73
2021/01/26 10:38:29;;;;;;;3.88;2.03;;;;;;;;;;4981151;28;20047;-72
2021/01/26 10:41:18;;;;;;;2.85;2.05;;;;;;;;;;4974812;28;20050;-72
2021/01/26 10:43:44;;;;;;;3.60;2.08;;;;;;;;;;4973825;28;20078;-71
2021/01/26 10:46:33;;;;;;;4.00;2.30;;;;;;;;;;4968215;28;20070;-72
2021/01/26 10:49:34;;;;;;;2.53;1.88;;;;;;;;;;4976671;28;20051;-69
2021/01/26 10:52:05;;;;;;;3.70;2.20;;;;;;;;;;4987163;28;20050;-71
2021/01/26 10:54:31;;;;;;;3.67;2.42;;;;;;;;;;4991473;28;20074;-71
2021/01/26 10:56:58;;;;;;;4.93;2.35;;;;;;;;;;4983453;28;20107;-74
2021/01/26 10:59:25;;;;;;;9.23;2.17;;;;;;;;;;4984063;28;20058;-74
2021/01/26 11:01:51;;;;;;;4.07;2.00;;;;;;;;;;4948266;28;20105;-74
2021/01/26 11:04:19;;;;;;;5.25;2.70;;;;;;;;;;4990712;28;20058;-78
2021/01/26 11:06:46;;;;;;;3.95;2.03;;;;;;;;;;4971787;28;20421;-74
2021/01/26 11:09:14;;;;;;;2.78;2.00;;;;;;;;;;4991522;28;20469;-75
2021/01/26 11:11:43;;;;;;;3.47;1.70;;;;;;;;;;4989131;28;20565;-73
2021/01/26 11:14:09;;;;;;;3.20;1.98;;;;;;;;;;4985019;28;20145;-74
2021/01/26 11:16:36;;;;;;;3.70;1.55;;;;;;;;;;4990868;28;20064;-74
2021/01/26 11:19:04;;;;;;;3.50;1.58;;;;;;;;;;4990079;28;20081;-74
2021/01/26 11:21:31;;;;;;;4.32;2.47;;;;;;;;;;4991351;28;20054;-73
2021/01/26 11:23:58;;;;;;;4.32;2.33;;;;;;;;;;4991591;28;20579;-73
2021/01/26 11:26:25;;;;;;;6.88;2.00;;;;;;;;;;4979078;28;20052;-72
2021/01/26 11:28:54;;;;;;;4.43;1.85;;;;;;;;;;4977262;28;20142;-72
2021/01/26 11:31:21;;;;;;;5.85;1.90;;;;;;;;;;4988288;28;20592;-72
2021/01/26 11:33:48;;;;;;;3.38;1.50;;;;;;;;;;4989235;28;20643;-72
2021/01/26 11:36:15;;;;;;;3.30;1.30;;;;;;;;;;4986402;28;20046;-72
2021/01/26 11:38:41;;;;;;;7.22;1.75;;;;;;;;;;4985991;28;20058;-72
2021/01/26 11:41:09;;;;;;;3.25;1.70;;;;;;;;;;4989540;28;20425;-72
2021/01/26 11:43:35;;;;;;;5.97;1.83;;;;;;;;;;4989543;28;20057;-72
2021/01/26 11:46:04;;;;;;;4.78;1.90;;;;;;;;;;4986271;28;20138;-71
2021/01/26 11:48:31;;;;;;;4.30;1.70;;;;;;;;;;4989545;28;20058;-72
2021/01/26 11:50:59;;;;;;;8.90;2.40;;;;;;;;;;4989742;28;20081;-72
2021/01/26 11:53:25;;;;;;;3.65;2.30;;;;;;;;;;4988718;28;20050;-72
2021/01/26 11:55:51;;;;;;;5.93;2.70;;;;;;;;;;4984412;28;20090;-74
2021/01/26 11:58:18;;;;;;;4.20;2.00;;;;;;;;;;4972228;28;20050;-80
2021/01/26 12:00:44;;;;;;;5.78;2.38;;;;;;;;;;4973294;28;20472;-75
2021/01/26 12:03:10;;;;;;;5.05;2.20;;;;;;;;;;4988866;28;20497;-76
2021/01/26 12:05:40;;;;;;;8.20;2.72;;;;;;;;;;4954196;28;20085;-75
2021/01/26 12:08:09;;;;;;;7.03;2.90;;;;;;;;;;4964951;28;20085;-71
2021/01/26 12:10:36;;;;;;;7.20;2.92;;;;;;;;;;4988984;28;20051;-75
2021/01/26 12:13:05;;;;;;;6.93;2.85;;;;;;;;;;4989222;28;20050;-72
2021/01/26 12:15:34;;;;;;;8.00;2.80;;;;;;;;;;4990438;28;20058;-75
2021/01/26 12:18:04;;;;;;;6.03;2.92;;;;;;;;;;4988300;28;20444;-72
2021/01/26 12:20:31;;;;;;;6.70;3.33;;;;;;;;;;4990502;28;20428;-71
2021/01/26 12:22:59;;;;;;;6.32;2.47;;;;;;;;;;4990798;28;20046;-71
2021/01/26 12:25:26;;;;;;;8.63;3.22;;;;;;;;;;4989234;28;20047;-71
2021/01/26 12:27:53;;;;;;;8.10;3.30;;;;;;;;;;4986855;28;20081;-71
2021/01/26 12:30:20;;;;;;;5.72;3.33;;;;;;;;;;4991280;28;20113;-71
2021/01/26 12:32:46;;;;;;;6.43;2.35;;;;;;;;;;4990587;28;20105;-70
2021/01/26 12:35:17;;;;;;;5.97;2.30;;;;;;;;;;4987014;28;20042;-75
2021/01/26 12:37:43;;;;;;;8.52;2.65;;;;;;;;;;4983280;28;20050;-71
2021/01/26 12:40:10;;;;;;;5.50;2.47;;;;;;;;;;4990840;28;20110;-74
2021/01/26 12:42:38;;;;;;;5.60;2.40;;;;;;;;;;4989685;28;20065;-74
2021/01/26 12:45:06;;;;;;;6.28;2.67;;;;;;;;;;4987039;28;20055;-73
2021/01/26 12:47:33;;;;;;;5.70;2.50;;;;;;;;;;4989293;28;20125;-73
2021/01/26 12:50:00;;;;;;;5.60;2.47;;;;;;;;;;4989049;28;20513;-72
2021/01/26 12:52:27;;;;;;;5.70;2.30;;;;;;;;;;4989912;28;20493;-76
2021/01/26 12:54:54;;;;;;;4.78;2.30;;;;;;;;;;4985979;28;20062;-73
2021/01/26 12:57:21;;;;;;;4.38;2.20;;;;;;;;;;4987717;28;20042;-68
2021/01/26 12:59:51;;;;;;;9.48;3.05;;;;;;;;;;4987210;28;20054;-67
2021/01/26 13:02:22;;;;;;;5.93;2.20;;;;;;;;;;4987154;28;20529;-67
2021/01/26 13:04:49;;;;;;;7.93;2.35;;;;;;;;;;4990027;28;20461;-67
2021/01/26 13:07:17;;;;;;;3.95;2.13;;;;;;;;;;4983178;28;20580;-67
2021/01/26 13:09:44;;;;;;;4.22;2.33;;;;;;;;;;4989688;28;20053;-68
2021/01/26 13:12:10;;;;;;;4.32;2.28;;;;;;;;;;4990104;28;20456;-67
2021/01/26 13:14:38;;;;;;;4.78;2.17;;;;;;;;;;4989738;28;20082;-67
2021/01/26 13:17:05;;;;;;;7.15;2.95;;;;;;;;;;4989792;28;20050;-68
2021/01/26 13:19:31;;;;;;;3.70;2.17;;;;;;;;;;4989759;28;20042;-68
2021/01/26 13:21:58;;;;;;;9.27;3.25;;;;;;;;;;4989986;28;20468;-67
2021/01/26 13:24:25;;;;;;;4.30;2.58;;;;;;;;;;4989871;28;20543;-67
2021/01/26 13:26:52;;;;;;;8.48;2.42;;;;;;;;;;4989689;28;20465;-67
2021/01/26 13:29:18;;;;;;;6.45;3.67;;;;;;;;;;4989031;28;20174;-67
2021/01/26 13:31:44;;;;;;;7.38;3.08;;;;;;;;;;4987983;28;20556;-67
2021/01/26 13:34:10;;;;;;;8.52;2.88;;;;;;;;;;4989796;28;20061;-67
2021/01/26 13:36:36;;;;;;;7.40;3.33;;;;;;;;;;4992633;28;20055;-67
2021/01/26 13:39:02;;;;;;;5.95;3.15;;;;;;;;;;4995020;28;20058;-67
2021/01/26 13:41:28;;;;;;;8.57;2.45;;;;;;;;;;4993809;28;20055;-67
2021/01/26 13:43:55;;;;;;;7.93;2.75;;;;;;;;;;4995165;28;20061;-67
2021/01/26 13:46:21;;;;;;;5.82;2.60;;;;;;;;;;4994526;28;20054;-67
2021/01/26 13:48:47;;;;;;;5.53;2.70;;;;;;;;;;4995297;28;20494;-67
2021/01/26 13:51:13;;;;;;;5.43;2.65;;;;;;;;;;4995516;28;20046;-67
2021/01/26 13:53:39;;;;;;;3.42;2.20;;;;;;;;;;4995132;28;20054;-67
2021/01/26 13:56:05;;;;;;;4.95;2.33;;;;;;;;;;4994534;28;20100;-67
2021/01/26 13:58:31;;;;;;;3.50;1.75;;;;;;;;;;4994857;28;20055;-67
2021/01/26 14:00:59;;;;;;;4.30;2.15;;;;;;;;;;4995074;28;20489;-67
2021/01/26 14:03:25;;;;;;;3.00;1.90;;;;;;;;;;4994907;28;20051;-67
2021/01/26 14:05:52;;;;;;;3.83;1.90;;;;;;;;;;4994416;28;20120;-67
2021/01/26 14:08:20;;;;;;;6.93;2.15;;;;;;;;;;4994453;28;20110;-67
2021/01/26 14:10:47;;;;;;;6.40;2.50;;;;;;;;;;4983737;28;20497;-67
2021/01/26 14:13:13;;;;;;;4.72;2.88;;;;;;;;;;4974742;28;20105;-67
2021/01/26 14:15:39;;;;;;;4.53;2.33;;;;;;;;;;4974019;28;20086;-67
2021/01/26 14:18:05;;;;;;;3.58;1.40;;;;;;;;;;4976777;28;20082;-67
2021/01/26 14:20:32;;;;;;;6.80;1.85;;;;;;;;;;4994606;28;20477;-67
2021/01/26 14:22:58;;;;;;;2.25;1.83;;;;;;;;;;4994798;28;20046;-67
2021/01/26 14:25:24;;;;;;;3.00;1.70;;;;;;;;;;4993967;28;20088;-67
2021/01/26 14:27:51;;;;;;;1.75;1.40;;;;;;;;;;4994681;28;20057;-67
2021/01/26 14:30:19;;;;;;;3.42;1.75;;;;;;;;;;4994653;28;20465;-67
2021/01/26 14:32:45;;;;;;;7.35;3.13;;;;;;;;;;4994536;28;20472;-67
2021/01/26 14:35:18;;;;;;;3.53;1.55;;;;;;;;;;4994120;28;20125;-67
2021/01/26 14:37:44;;;;;;;3.90;1.13;;;;;;;;;;4994214;28;20524;-67
2021/01/26 14:40:11;;;;;;;2.28;1.60;;;;;;;;;;4994452;28;20050;-67
2021/01/26 14:42:37;;;;;;;3.58;1.20;;;;;;;;;;4994405;28;20050;-67
2021/01/26 14:45:05;;;;;;;5.70;1.55;;;;;;;;;;4994222;28;20092;-67
2021/01/26 14:47:31;;;;;;;3.83;1.90;;;;;;;;;;4992523;28;20081;-67
2021/01/26 14:49:57;;;;;;;5.07;1.20;;;;;;;;;;4993096;28;20050;-66
2021/01/26 14:52:23;;;;;;;2.22;1.60;;;;;;;;;;4994084;28;20128;-67
2021/01/26 14:54:49;;;;;;;4.40;1.73;;;;;;;;;;4994128;28;20090;-67
2021/01/26 14:57:15;;;;;;;4.15;1.95;;;;;;;;;;5025596;23;20675;-72
2021/01/26 14:59:42;;;;;;;5.00;1.63;;;;;;;;;;5050471;28;20129;-75
2021/01/26 15:02:08;;;;;;;6.00;1.80;;;;;;;;;;5051209;28;20053;-74
2021/01/26 15:04:34;;;;;;;6.90;1.90;;;;;;;;;;5053245;28;20525;-74
2021/01/26 15:07:00;;;;;;;5.80;1.98;;;;;;;;;;5042076;28;20453;-77
2021/01/26 15:09:27;;;;;;;11.05;1.70;;;;;;;;;;5017295;28;20102;-76